sensor_id;sensor_type;location;lat;lon;timestamp;P1;durP1;ratioP1;P2;durP2;ratioP2
13356;SDS011;6747;56.456;-3.120;2023-11-22T00:01:20;2.40;;;1.40;;
13356;SDS011;6747;56.456;-3.120;2023-11-22T00:03:50;4.28;;;1.70;;
13356;SDS011;6747;56.456;-3.120;2023-11-22T00:06:17;4.25;;;1.70;;
13356;SDS011;6747;56.456;-3.120;2023-11-22T00:08:45;4.45;;;1.73;;
13356;SDS011;6747;56.456;-3.120;2023-11-22T00:11:13;4.82;;;2.13;;
13356;SDS011;6747;56.456;-3.120;2023-11-22T00:13:40;5.43;;;1.80;;
13356;SDS011;6747;56.456;-3.120;2023-11-22T00:16:08;3.95;;;2.25;;
13356;SDS011;6747;56.456;-3.120;2023-11-22T00:18:37;2.63;;;2.35;;
13356;SDS011;6747;56.456;-3.120;2023-11-22T00:21:05;7.00;;;3.20;;
13356;SDS011;6747;56.456;-3.120;2023-11-22T00:23:33;4.13;;;3.47;;
13356;SDS011;6747;56.456;-3.120;2023-11-22T00:26:01;4.38;;;3.97;;
13356;SDS011;6747;56.456;-3.120;2023-11-22T00:28:30;3.90;;;3.58;;
13356;SDS011;6747;56.456;-3.120;2023-11-22T00:30:58;4.38;;;3.30;;
13356;SDS011;6747;56.456;-3.120;2023-11-22T00:33:25;3.70;;;3.10;;
13356;SDS011;6747;56.456;-3.120;2023-11-22T00:35:54;3.35;;;3.05;;
13356;SDS011;6747;56.456;-3.120;2023-11-22T00:38:23;3.15;;;2.83;;
13356;SDS011;6747;56.456;-3.120;2023-11-22T00:40:50;3.55;;;3.25;;
13356;SDS011;6747;56.456;-3.120;2023-11-22T00:43:18;4.97;;;2.65;;
13356;SDS011;6747;56.456;-3.120;2023-11-22T00:45:45;3.33;;;2.90;;
13356;SDS011;6747;56.456;-3.120;2023-11-22T00:48:13;3.42;;;2.97;;
13356;SDS011;6747;56.456;-3.120;2023-11-22T00:50:40;3.35;;;3.05;;
13356;SDS011;6747;56.456;-3.120;2023-11-22T00:53:09;4.82;;;3.13;;
13356;SDS011;6747;56.456;-3.120;2023-11-22T00:55:36;6.05;;;3.50;;
13356;SDS011;6747;56.456;-3.120;2023-11-22T00:58:04;5.00;;;2.88;;
13356;SDS011;6747;56.456;-3.120;2023-11-22T01:00:32;3.25;;;3.05;;
13356;SDS011;6747;56.456;-3.120;2023-11-22T01:03:00;5.53;;;3.22;;
13356;SDS011;6747;56.456;-3.120;2023-11-22T01:05:30;3.60;;;3.30;;
13356;SDS011;6747;56.456;-3.120;2023-11-22T01:07:57;3.35;;;3.00;;
13356;SDS011;6747;56.456;-3.120;2023-11-22T01:10:26;3.70;;;3.42;;
13356;SDS011;6747;56.456;-3.120;2023-11-22T01:12:53;4.75;;;3.63;;
13356;SDS011;6747;56.456;-3.120;2023-11-22T01:15:21;6.50;;;3.40;;
13356;SDS011;6747;56.456;-3.120;2023-11-22T01:17:49;4.47;;;3.03;;
13356;SDS011;6747;56.456;-3.120;2023-11-22T01:20:17;3.42;;;3.13;;
13356;SDS011;6747;56.456;-3.120;2023-11-22T01:22:47;4.65;;;3.00;;
13356;SDS011;6747;56.456;-3.120;2023-11-22T01:25:15;3.47;;;2.80;;
13356;SDS011;6747;56.456;-3.120;2023-11-22T01:27:44;3.45;;;3.15;;
13356;SDS011;6747;56.456;-3.120;2023-11-22T01:30:11;8.85;;;3.40;;
13356;SDS011;6747;56.456;-3.120;2023-11-22T01:32:40;3.80;;;3.50;;
13356;SDS011;6747;56.456;-3.120;2023-11-22T01:35:07;4.68;;;4.28;;
13356;SDS011;6747;56.456;-3.120;2023-11-22T01:37:35;4.18;;;3.78;;
13356;SDS011;6747;56.456;-3.120;2023-11-22T01:40:03;5.43;;;3.80;;
13356;SDS011;6747;56.456;-3.120;2023-11-22T01:42:31;3.70;;;3.40;;
13356;SDS011;6747;56.456;-3.120;2023-11-22T01:45:00;4.13;;;3.83;;
13356;SDS011;6747;56.456;-3.120;2023-11-22T01:47:28;3.95;;;3.65;;
13356;SDS011;6747;56.456;-3.120;2023-11-22T01:49:56;3.50;;;3.20;;
13356;SDS011;6747;56.456;-3.120;2023-11-22T01:52:23;4.00;;;3.70;;
13356;SDS011;6747;56.456;-3.120;2023-11-22T01:54:51;4.18;;;3.00;;
13356;SDS011;6747;56.456;-3.120;2023-11-22T01:57:18;3.30;;;3.00;;
13356;SDS011;6747;56.456;-3.120;2023-11-22T01:59:47;3.25;;;3.05;;
13356;SDS011;6747;56.456;-3.120;2023-11-22T02:02:16;3.40;;;3.10;;
13356;SDS011;6747;56.456;-3.120;2023-11-22T02:04:43;3.47;;;3.13;;
13356;SDS011;6747;56.456;-3.120;2023-11-22T02:07:10;3.30;;;3.10;;
13356;SDS011;6747;56.456;-3.120;2023-11-22T02:09:38;3.30;;;2.70;;
13356;SDS011;6747;56.456;-3.120;2023-11-22T02:12:06;3.78;;;2.80;;
13356;SDS011;6747;56.456;-3.120;2023-11-22T02:14:35;2.47;;;2.28;;
13356;SDS011;6747;56.456;-3.120;2023-11-22T02:17:02;2.58;;;2.38;;
13356;SDS011;6747;56.456;-3.120;2023-11-22T02:19:31;2.30;;;2.10;;
13356;SDS011;6747;56.456;-3.120;2023-11-22T02:21:59;1.80;;;1.70;;
13356;SDS011;6747;56.456;-3.120;2023-11-22T02:24:28;2.58;;;1.30;;
13356;SDS011;6747;56.456;-3.120;2023-11-22T02:26:58;1.67;;;1.25;;
13356;SDS011;6747;56.456;-3.120;2023-11-22T02:29:25;1.30;;;1.27;;
13356;SDS011;6747;56.456;-3.120;2023-11-22T02:31:53;1.95;;;1.42;;
13356;SDS011;6747;56.456;-3.120;2023-11-22T02:34:21;1.30;;;1.25;;
13356;SDS011;6747;56.456;-3.120;2023-11-22T02:36:49;1.95;;;1.30;;
13356;SDS011;6747;56.456;-3.120;2023-11-22T02:39:16;1.65;;;1.55;;
13356;SDS011;6747;56.456;-3.120;2023-11-22T02:41:45;1.40;;;1.30;;
13356;SDS011;6747;56.456;-3.120;2023-11-22T02:44:13;3.38;;;1.20;;
13356;SDS011;6747;56.456;-3.120;2023-11-22T02:46:42;1.55;;;1.30;;
13356;SDS011;6747;56.456;-3.120;2023-11-22T02:49:10;1.40;;;1.38;;
13356;SDS011;6747;56.456;-3.120;2023-11-22T02:51:37;1.65;;;1.60;;
13356;SDS011;6747;56.456;-3.120;2023-11-22T02:54:05;1.73;;;1.63;;
13356;SDS011;6747;56.456;-3.120;2023-11-22T02:56:33;1.95;;;1.73;;
13356;SDS011;6747;56.456;-3.120;2023-11-22T02:59:02;1.83;;;1.73;;
13356;SDS011;6747;56.456;-3.120;2023-11-22T03:01:30;1.75;;;1.70;;
13356;SDS011;6747;56.456;-3.120;2023-11-22T03:03:57;1.65;;;1.20;;
13356;SDS011;6747;56.456;-3.120;2023-11-22T03:06:25;1.42;;;1.42;;
13356;SDS011;6747;56.456;-3.120;2023-11-22T03:08:53;1.77;;;1.67;;
13356;SDS011;6747;56.456;-3.120;2023-11-22T03:11:20;2.15;;;0.95;;
13356;SDS011;6747;56.456;-3.120;2023-11-22T03:13:48;0.57;;;0.57;;
13356;SDS011;6747;56.456;-3.120;2023-11-22T03:16:17;3.30;;;0.93;;
13356;SDS011;6747;56.456;-3.120;2023-11-22T03:18:44;2.05;;;0.90;;
13356;SDS011;6747;56.456;-3.120;2023-11-22T03:21:12;0.80;;;0.80;;
13356;SDS011;6747;56.456;-3.120;2023-11-22T03:23:40;0.75;;;0.68;;
13356;SDS011;6747;56.456;-3.120;2023-11-22T03:26:07;1.75;;;0.70;;
13356;SDS011;6747;56.456;-3.120;2023-11-22T03:28:36;0.70;;;0.70;;
13356;SDS011;6747;56.456;-3.120;2023-11-22T03:31:03;0.75;;;0.75;;
13356;SDS011;6747;56.456;-3.120;2023-11-22T03:33:34;0.80;;;0.80;;
13356;SDS011;6747;56.456;-3.120;2023-11-22T03:36:03;1.38;;;0.75;;
13356;SDS011;6747;56.456;-3.120;2023-11-22T03:38:31;2.75;;;0.77;;
13356;SDS011;6747;56.456;-3.120;2023-11-22T03:40:59;1.35;;;0.60;;
13356;SDS011;6747;56.456;-3.120;2023-11-22T03:43:26;0.85;;;0.60;;
13356;SDS011;6747;56.456;-3.120;2023-11-22T03:45:54;0.57;;;0.45;;
13356;SDS011;6747;56.456;-3.120;2023-11-22T03:48:21;0.52;;;0.52;;
13356;SDS011;6747;56.456;-3.120;2023-11-22T03:50:50;0.60;;;0.60;;
13356;SDS011;6747;56.456;-3.120;2023-11-22T03:53:17;0.30;;;0.30;;
13356;SDS011;6747;56.456;-3.120;2023-11-22T03:55:46;0.40;;;0.40;;
13356;SDS011;6747;56.456;-3.120;2023-11-22T03:58:14;0.50;;;0.50;;
13356;SDS011;6747;56.456;-3.120;2023-11-22T04:00:43;4.07;;;0.70;;
13356;SDS011;6747;56.456;-3.120;2023-11-22T04:03:10;0.40;;;0.40;;
13356;SDS011;6747;56.456;-3.120;2023-11-22T04:05:38;0.47;;;0.47;;
13356;SDS011;6747;56.456;-3.120;2023-11-22T04:08:07;0.40;;;0.40;;
13356;SDS011;6747;56.456;-3.120;2023-11-22T04:10:35;0.60;;;0.30;;
13356;SDS011;6747;56.456;-3.120;2023-11-22T04:13:02;0.40;;;0.40;;
13356;SDS011;6747;56.456;-3.120;2023-11-22T04:15:30;0.30;;;0.30;;
13356;SDS011;6747;56.456;-3.120;2023-11-22T04:17:57;0.40;;;0.40;;
13356;SDS011;6747;56.456;-3.120;2023-11-22T04:20:25;1.00;;;0.40;;
13356;SDS011;6747;56.456;-3.120;2023-11-22T04:22:52;1.90;;;0.30;;
13356;SDS011;6747;56.456;-3.120;2023-11-22T04:25:21;0.20;;;0.20;;
13356;SDS011;6747;56.456;-3.120;2023-11-22T04:27:49;0.47;;;0.32;;
13356;SDS011;6747;56.456;-3.120;2023-11-22T04:30:16;0.35;;;0.30;;
13356;SDS011;6747;56.456;-3.120;2023-11-22T04:32:44;0.30;;;0.30;;
13356;SDS011;6747;56.456;-3.120;2023-11-22T04:35:12;0.43;;;0.30;;
13356;SDS011;6747;56.456;-3.120;2023-11-22T04:37:39;0.30;;;0.20;;
13356;SDS011;6747;56.456;-3.120;2023-11-22T04:40:08;0.57;;;0.20;;
13356;SDS011;6747;56.456;-3.120;2023-11-22T04:42:38;0.10;;;0.10;;
13356;SDS011;6747;56.456;-3.120;2023-11-22T04:45:05;0.17;;;0.17;;
13356;SDS011;6747;56.456;-3.120;2023-11-22T04:47:34;0.20;;;0.20;;
13356;SDS011;6747;56.456;-3.120;2023-11-22T04:50:02;0.70;;;0.20;;
13356;SDS011;6747;56.456;-3.120;2023-11-22T04:52:29;0.22;;;0.17;;
13356;SDS011;6747;56.456;-3.120;2023-11-22T04:54:57;0.10;;;0.10;;
13356;SDS011;6747;56.456;-3.120;2023-11-22T04:57:26;0.32;;;0.10;;
13356;SDS011;6747;56.456;-3.120;2023-11-22T04:59:54;0.40;;;0.28;;
13356;SDS011;6747;56.456;-3.120;2023-11-22T05:02:22;0.30;;;0.30;;
13356;SDS011;6747;56.456;-3.120;2023-11-22T05:04:52;0.10;;;0.10;;
13356;SDS011;6747;56.456;-3.120;2023-11-22T05:07:19;0.10;;;0.10;;
13356;SDS011;6747;56.456;-3.120;2023-11-22T05:09:47;0.10;;;0.10;;
13356;SDS011;6747;56.456;-3.120;2023-11-22T05:12:15;0.38;;;0.38;;
13356;SDS011;6747;56.456;-3.120;2023-11-22T05:14:43;0.30;;;0.30;;
13356;SDS011;6747;56.456;-3.120;2023-11-22T05:17:12;0.30;;;0.30;;
13356;SDS011;6747;56.456;-3.120;2023-11-22T05:19:39;0.40;;;0.40;;
13356;SDS011;6747;56.456;-3.120;2023-11-22T05:22:07;0.40;;;0.40;;
13356;SDS011;6747;56.456;-3.120;2023-11-22T05:24:34;1.08;;;0.55;;
13356;SDS011;6747;56.456;-3.120;2023-11-22T05:27:06;0.50;;;0.50;;
13356;SDS011;6747;56.456;-3.120;2023-11-22T05:29:33;0.38;;;0.38;;
13356;SDS011;6747;56.456;-3.120;2023-11-22T05:32:01;0.60;;;0.50;;
13356;SDS011;6747;56.456;-3.120;2023-11-22T05:34:30;0.30;;;0.30;;
13356;SDS011;6747;56.456;-3.120;2023-11-22T05:36:58;0.52;;;0.40;;
13356;SDS011;6747;56.456;-3.120;2023-11-22T05:39:25;0.85;;;0.30;;
13356;SDS011;6747;56.456;-3.120;2023-11-22T05:41:53;0.60;;;0.60;;
13356;SDS011;6747;56.456;-3.120;2023-11-22T05:44:21;0.30;;;0.30;;
13356;SDS011;6747;56.456;-3.120;2023-11-22T05:46:50;0.43;;;0.43;;
13356;SDS011;6747;56.456;-3.120;2023-11-22T05:49:19;0.25;;;0.25;;
13356;SDS011;6747;56.456;-3.120;2023-11-22T05:51:48;0.40;;;0.20;;
13356;SDS011;6747;56.456;-3.120;2023-11-22T05:54:15;0.50;;;0.50;;
13356;SDS011;6747;56.456;-3.120;2023-11-22T05:56:43;1.05;;;0.40;;
13356;SDS011;6747;56.456;-3.120;2023-11-22T05:59:11;0.20;;;0.20;;
13356;SDS011;6747;56.456;-3.120;2023-11-22T06:01:38;0.20;;;0.20;;
13356;SDS011;6747;56.456;-3.120;2023-11-22T06:04:06;0.30;;;0.30;;
13356;SDS011;6747;56.456;-3.120;2023-11-22T06:06:34;0.20;;;0.20;;
13356;SDS011;6747;56.456;-3.120;2023-11-22T06:09:03;0.20;;;0.20;;
13356;SDS011;6747;56.456;-3.120;2023-11-22T06:11:32;0.20;;;0.20;;
13356;SDS011;6747;56.456;-3.120;2023-11-22T06:14:00;0.30;;;0.30;;
13356;SDS011;6747;56.456;-3.120;2023-11-22T06:16:27;0.45;;;0.40;;
13356;SDS011;6747;56.456;-3.120;2023-11-22T06:18:55;0.20;;;0.20;;
13356;SDS011;6747;56.456;-3.120;2023-11-22T06:21:22;0.10;;;0.10;;
13356;SDS011;6747;56.456;-3.120;2023-11-22T06:23:52;0.68;;;0.20;;
13356;SDS011;6747;56.456;-3.120;2023-11-22T06:26:21;0.15;;;0.15;;
13356;SDS011;6747;56.456;-3.120;2023-11-22T06:28:49;0.20;;;0.20;;
13356;SDS011;6747;56.456;-3.120;2023-11-22T06:31:17;0.20;;;0.20;;
13356;SDS011;6747;56.456;-3.120;2023-11-22T06:33:44;0.22;;;0.22;;
13356;SDS011;6747;56.456;-3.120;2023-11-22T06:36:12;0.25;;;0.25;;
13356;SDS011;6747;56.456;-3.120;2023-11-22T06:38:40;0.40;;;0.40;;
13356;SDS011;6747;56.456;-3.120;2023-11-22T06:41:07;0.20;;;0.20;;
13356;SDS011;6747;56.456;-3.120;2023-11-22T06:43:36;0.90;;;0.43;;
13356;SDS011;6747;56.456;-3.120;2023-11-22T06:46:04;0.30;;;0.30;;
13356;SDS011;6747;56.456;-3.120;2023-11-22T06:48:32;0.32;;;0.32;;
13356;SDS011;6747;56.456;-3.120;2023-11-22T06:50:59;0.93;;;0.30;;
13356;SDS011;6747;56.456;-3.120;2023-11-22T06:53:27;0.40;;;0.40;;
13356;SDS011;6747;56.456;-3.120;2023-11-22T06:55:54;0.30;;;0.30;;
13356;SDS011;6747;56.456;-3.120;2023-11-22T06:58:22;0.30;;;0.30;;
13356;SDS011;6747;56.456;-3.120;2023-11-22T07:00:51;0.38;;;0.38;;
13356;SDS011;6747;56.456;-3.120;2023-11-22T07:03:18;0.35;;;0.35;;
13356;SDS011;6747;56.456;-3.120;2023-11-22T07:05:46;0.47;;;0.43;;
13356;SDS011;6747;56.456;-3.120;2023-11-22T07:08:14;0.30;;;0.30;;
13356;SDS011;6747;56.456;-3.120;2023-11-22T07:10:41;0.40;;;0.40;;
13356;SDS011;6747;56.456;-3.120;2023-11-22T07:13:10;0.30;;;0.30;;
13356;SDS011;6747;56.456;-3.120;2023-11-22T07:15:38;0.45;;;0.45;;
13356;SDS011;6747;56.456;-3.120;2023-11-22T07:18:07;0.30;;;0.30;;
13356;SDS011;6747;56.456;-3.120;2023-11-22T07:20:35;0.30;;;0.30;;
13356;SDS011;6747;56.456;-3.120;2023-11-22T07:23:04;0.30;;;0.30;;
13356;SDS011;6747;56.456;-3.120;2023-11-22T07:25:32;0.47;;;0.40;;
13356;SDS011;6747;56.456;-3.120;2023-11-22T07:27:59;0.45;;;0.40;;
13356;SDS011;6747;56.456;-3.120;2023-11-22T07:30:27;0.50;;;0.50;;
13356;SDS011;6747;56.456;-3.120;2023-11-22T07:32:56;1.10;;;0.50;;
13356;SDS011;6747;56.456;-3.120;2023-11-22T07:35:25;0.63;;;0.40;;
13356;SDS011;6747;56.456;-3.120;2023-11-22T07:37:53;0.40;;;0.40;;
13356;SDS011;6747;56.456;-3.120;2023-11-22T07:40:21;1.00;;;0.60;;
13356;SDS011;6747;56.456;-3.120;2023-11-22T07:42:48;0.40;;;0.40;;
13356;SDS011;6747;56.456;-3.120;2023-11-22T07:45:16;0.52;;;0.50;;
13356;SDS011;6747;56.456;-3.120;2023-11-22T07:47:44;0.60;;;0.60;;
13356;SDS011;6747;56.456;-3.120;2023-11-22T07:50:12;1.77;;;0.60;;
13356;SDS011;6747;56.456;-3.120;2023-11-22T07:52:41;0.50;;;0.50;;
13356;SDS011;6747;56.456;-3.120;2023-11-22T07:55:09;0.50;;;0.50;;
13356;SDS011;6747;56.456;-3.120;2023-11-22T07:57:37;0.50;;;0.50;;
13356;SDS011;6747;56.456;-3.120;2023-11-22T08:00:06;0.47;;;0.47;;
13356;SDS011;6747;56.456;-3.120;2023-11-22T08:02:34;0.32;;;0.32;;
13356;SDS011;6747;56.456;-3.120;2023-11-22T08:05:04;0.50;;;0.50;;
13356;SDS011;6747;56.456;-3.120;2023-11-22T08:07:33;0.50;;;0.50;;
13356;SDS011;6747;56.456;-3.120;2023-11-22T08:10:06;0.40;;;0.40;;
13356;SDS011;6747;56.456;-3.120;2023-11-22T08:12:42;0.22;;;0.22;;
13356;SDS011;6747;56.456;-3.120;2023-11-22T08:15:10;0.40;;;0.40;;
13356;SDS011;6747;56.456;-3.120;2023-11-22T08:17:38;0.20;;;0.20;;
13356;SDS011;6747;56.456;-3.120;2023-11-22T08:20:06;0.22;;;0.22;;
13356;SDS011;6747;56.456;-3.120;2023-11-22T08:22:37;0.13;;;0.13;;
13356;SDS011;6747;56.456;-3.120;2023-11-22T08:25:07;0.10;;;0.10;;
13356;SDS011;6747;56.456;-3.120;2023-11-22T08:27:37;0.10;;;0.10;;
13356;SDS011;6747;56.456;-3.120;2023-11-22T08:30:06;0.00;;;0.00;;
13356;SDS011;6747;56.456;-3.120;2023-11-22T08:32:38;0.00;;;0.00;;
13356;SDS011;6747;56.456;-3.120;2023-11-22T08:35:07;0.00;;;0.00;;
13356;SDS011;6747;56.456;-3.120;2023-11-22T08:37:35;0.10;;;0.10;;
13356;SDS011;6747;56.456;-3.120;2023-11-22T08:40:05;0.03;;;0.03;;
13356;SDS011;6747;56.456;-3.120;2023-11-22T08:42:34;0.70;;;0.10;;
13356;SDS011;6747;56.456;-3.120;2023-11-22T08:45:02;0.00;;;0.00;;
13356;SDS011;6747;56.456;-3.120;2023-11-22T08:47:29;0.10;;;0.10;;
13356;SDS011;6747;56.456;-3.120;2023-11-22T08:49:57;0.10;;;0.10;;
13356;SDS011;6747;56.456;-3.120;2023-11-22T08:52:24;0.10;;;0.05;;
13356;SDS011;6747;56.456;-3.120;2023-11-22T08:54:52;0.63;;;0.10;;
13356;SDS011;6747;56.456;-3.120;2023-11-22T08:57:22;0.10;;;0.10;;
13356;SDS011;6747;56.456;-3.120;2023-11-22T08:59:51;0.10;;;0.10;;
13356;SDS011;6747;56.456;-3.120;2023-11-22T09:02:19;0.10;;;0.10;;
13356;SDS011;6747;56.456;-3.120;2023-11-22T09:04:47;0.05;;;0.00;;
13356;SDS011;6747;56.456;-3.120;2023-11-22T09:07:15;0.00;;;0.00;;
13356;SDS011;6747;56.456;-3.120;2023-11-22T09:09:43;0.15;;;0.15;;
13356;SDS011;6747;56.456;-3.120;2023-11-22T09:12:10;0.80;;;0.13;;
13356;SDS011;6747;56.456;-3.120;2023-11-22T09:14:40;0.13;;;0.10;;
13356;SDS011;6747;56.456;-3.120;2023-11-22T09:17:08;0.00;;;0.00;;
13356;SDS011;6747;56.456;-3.120;2023-11-22T09:19:35;0.47;;;0.00;;
13356;SDS011;6747;56.456;-3.120;2023-11-22T09:22:04;0.00;;;0.00;;
13356;SDS011;6747;56.456;-3.120;2023-11-22T09:24:32;0.40;;;0.35;;
13356;SDS011;6747;56.456;-3.120;2023-11-22T09:27:02;0.00;;;0.00;;
13356;SDS011;6747;56.456;-3.120;2023-11-22T09:29:31;0.10;;;0.00;;
13356;SDS011;6747;56.456;-3.120;2023-11-22T09:32:00;0.00;;;0.00;;
13356;SDS011;6747;56.456;-3.120;2023-11-22T09:34:28;0.00;;;0.00;;
13356;SDS011;6747;56.456;-3.120;2023-11-22T09:36:56;0.00;;;0.00;;
13356;SDS011;6747;56.456;-3.120;2023-11-22T09:39:24;0.20;;;0.10;;
13356;SDS011;6747;56.456;-3.120;2023-11-22T09:41:52;0.00;;;0.00;;
13356;SDS011;6747;56.456;-3.120;2023-11-22T09:44:20;0.00;;;0.00;;
13356;SDS011;6747;56.456;-3.120;2023-11-22T09:46:48;0.00;;;0.00;;
13356;SDS011;6747;56.456;-3.120;2023-11-22T09:49:20;0.15;;;0.13;;
13356;SDS011;6747;56.456;-3.120;2023-11-22T09:51:50;0.20;;;0.20;;
13356;SDS011;6747;56.456;-3.120;2023-11-22T09:54:18;0.17;;;0.15;;
13356;SDS011;6747;56.456;-3.120;2023-11-22T09:56:49;0.00;;;0.00;;
13356;SDS011;6747;56.456;-3.120;2023-11-22T09:59:18;0.00;;;0.00;;
13356;SDS011;6747;56.456;-3.120;2023-11-22T10:01:48;0.45;;;0.00;;
13356;SDS011;6747;56.456;-3.120;2023-11-22T10:04:17;0.00;;;0.00;;
13356;SDS011;6747;56.456;-3.120;2023-11-22T10:06:47;0.00;;;0.00;;
13356;SDS011;6747;56.456;-3.120;2023-11-22T10:09:14;0.03;;;0.03;;
13356;SDS011;6747;56.456;-3.120;2023-11-22T10:11:42;0.00;;;0.00;;
13356;SDS011;6747;56.456;-3.120;2023-11-22T10:14:11;0.00;;;0.00;;
13356;SDS011;6747;56.456;-3.120;2023-11-22T10:16:57;0.03;;;0.03;;
13356;SDS011;6747;56.456;-3.120;2023-11-22T10:19:24;0.10;;;0.10;;
13356;SDS011;6747;56.456;-3.120;2023-11-22T10:22:03;0.00;;;0.00;;
13356;SDS011;6747;56.456;-3.120;2023-11-22T10:24:31;0.13;;;0.13;;
13356;SDS011;6747;56.456;-3.120;2023-11-22T10:27:00;0.22;;;0.10;;
13356;SDS011;6747;56.456;-3.120;2023-11-22T10:29:28;0.13;;;0.00;;
13356;SDS011;6747;56.456;-3.120;2023-11-22T10:31:55;0.17;;;0.17;;
13356;SDS011;6747;56.456;-3.120;2023-11-22T10:34:23;0.75;;;0.00;;
13356;SDS011;6747;56.456;-3.120;2023-11-22T10:36:51;0.10;;;0.10;;
13356;SDS011;6747;56.456;-3.120;2023-11-22T10:39:21;0.15;;;0.15;;
13356;SDS011;6747;56.456;-3.120;2023-11-22T10:41:51;0.10;;;0.10;;
13356;SDS011;6747;56.456;-3.120;2023-11-22T10:44:19;0.10;;;0.10;;
13356;SDS011;6747;56.456;-3.120;2023-11-22T10:46:48;0.20;;;0.17;;
13356;SDS011;6747;56.456;-3.120;2023-11-22T10:49:17;0.32;;;0.10;;
13356;SDS011;6747;56.456;-3.120;2023-11-22T10:51:47;0.47;;;0.10;;
13356;SDS011;6747;56.456;-3.120;2023-11-22T10:54:16;0.50;;;0.10;;
13356;SDS011;6747;56.456;-3.120;2023-11-22T10:56:46;0.10;;;0.10;;
13356;SDS011;6747;56.456;-3.120;2023-11-22T10:59:15;0.00;;;0.00;;
13356;SDS011;6747;56.456;-3.120;2023-11-22T11:01:47;0.00;;;0.00;;
13356;SDS011;6747;56.456;-3.120;2023-11-22T11:04:19;0.20;;;0.20;;
13356;SDS011;6747;56.456;-3.120;2023-11-22T11:06:47;0.38;;;0.10;;
13356;SDS011;6747;56.456;-3.120;2023-11-22T11:09:17;0.10;;;0.10;;
13356;SDS011;6747;56.456;-3.120;2023-11-22T11:11:48;0.30;;;0.03;;
13356;SDS011;6747;56.456;-3.120;2023-11-22T11:14:16;0.00;;;0.00;;
13356;SDS011;6747;56.456;-3.120;2023-11-22T11:16:44;0.05;;;0.05;;
13356;SDS011;6747;56.456;-3.120;2023-11-22T11:19:15;0.00;;;0.00;;
13356;SDS011;6747;56.456;-3.120;2023-11-22T11:21:43;0.32;;;0.30;;
13356;SDS011;6747;56.456;-3.120;2023-11-22T11:24:11;0.10;;;0.10;;
13356;SDS011;6747;56.456;-3.120;2023-11-22T11:26:39;0.00;;;0.00;;
13356;SDS011;6747;56.456;-3.120;2023-11-22T11:29:08;0.00;;;0.00;;
13356;SDS011;6747;56.456;-3.120;2023-11-22T11:31:56;0.22;;;0.22;;
13356;SDS011;6747;56.456;-3.120;2023-11-22T11:34:23;0.10;;;0.10;;
13356;SDS011;6747;56.456;-3.120;2023-11-22T11:36:52;0.00;;;0.00;;
13356;SDS011;6747;56.456;-3.120;2023-11-22T11:39:24;0.00;;;0.00;;
13356;SDS011;6747;56.456;-3.120;2023-11-22T11:42:07;0.00;;;0.00;;
13356;SDS011;6747;56.456;-3.120;2023-11-22T11:44:36;0.47;;;0.15;;
13356;SDS011;6747;56.456;-3.120;2023-11-22T11:47:10;0.20;;;0.20;;
13356;SDS011;6747;56.456;-3.120;2023-11-22T11:49:39;0.20;;;0.20;;
13356;SDS011;6747;56.456;-3.120;2023-11-22T11:52:06;0.10;;;0.10;;
13356;SDS011;6747;56.456;-3.120;2023-11-22T11:54:34;0.10;;;0.10;;
13356;SDS011;6747;56.456;-3.120;2023-11-22T11:57:04;0.00;;;0.00;;
13356;SDS011;6747;56.456;-3.120;2023-11-22T11:59:32;0.10;;;0.10;;
13356;SDS011;6747;56.456;-3.120;2023-11-22T12:02:02;0.10;;;0.05;;
13356;SDS011;6747;56.456;-3.120;2023-11-22T12:04:30;0.00;;;0.00;;
13356;SDS011;6747;56.456;-3.120;2023-11-22T12:06:58;0.00;;;0.00;;
13356;SDS011;6747;56.456;-3.120;2023-11-22T12:09:25;0.00;;;0.00;;
13356;SDS011;6747;56.456;-3.120;2023-11-22T12:11:54;0.10;;;0.10;;
13356;SDS011;6747;56.456;-3.120;2023-11-22T12:14:22;0.00;;;0.00;;
13356;SDS011;6747;56.456;-3.120;2023-11-22T12:16:50;0.10;;;0.10;;
13356;SDS011;6747;56.456;-3.120;2023-11-22T12:19:24;0.10;;;0.00;;
13356;SDS011;6747;56.456;-3.120;2023-11-22T12:21:52;0.17;;;0.15;;
13356;SDS011;6747;56.456;-3.120;2023-11-22T12:24:19;0.73;;;0.20;;
13356;SDS011;6747;56.456;-3.120;2023-11-22T12:26:47;1.70;;;0.40;;
13356;SDS011;6747;56.456;-3.120;2023-11-22T12:29:15;0.20;;;0.20;;
13356;SDS011;6747;56.456;-3.120;2023-11-22T12:31:44;0.10;;;0.10;;
13356;SDS011;6747;56.456;-3.120;2023-11-22T12:34:12;0.20;;;0.20;;
13356;SDS011;6747;56.456;-3.120;2023-11-22T12:36:41;0.10;;;0.10;;
13356;SDS011;6747;56.456;-3.120;2023-11-22T12:39:09;0.00;;;0.00;;
13356;SDS011;6747;56.456;-3.120;2023-11-22T12:41:42;1.08;;;0.20;;
13356;SDS011;6747;56.456;-3.120;2023-11-22T12:44:10;0.15;;;0.10;;
13356;SDS011;6747;56.456;-3.120;2023-11-22T12:46:44;0.30;;;0.28;;
13356;SDS011;6747;56.456;-3.120;2023-11-22T12:49:14;0.10;;;0.10;;
13356;SDS011;6747;56.456;-3.120;2023-11-22T12:51:48;0.22;;;0.10;;
13356;SDS011;6747;56.456;-3.120;2023-11-22T12:54:17;0.10;;;0.10;;
13356;SDS011;6747;56.456;-3.120;2023-11-22T12:56:46;0.10;;;0.10;;
13356;SDS011;6747;56.456;-3.120;2023-11-22T12:59:14;0.30;;;0.10;;
13356;SDS011;6747;56.456;-3.120;2023-11-22T13:01:42;0.20;;;0.20;;
13356;SDS011;6747;56.456;-3.120;2023-11-22T13:04:10;0.10;;;0.10;;
13356;SDS011;6747;56.456;-3.120;2023-11-22T13:06:41;0.20;;;0.20;;
13356;SDS011;6747;56.456;-3.120;2023-11-22T13:09:10;0.10;;;0.10;;
13356;SDS011;6747;56.456;-3.120;2023-11-22T13:11:40;0.13;;;0.13;;
13356;SDS011;6747;56.456;-3.120;2023-11-22T13:14:08;0.08;;;0.08;;
13356;SDS011;6747;56.456;-3.120;2023-11-22T13:16:39;0.65;;;0.20;;
13356;SDS011;6747;56.456;-3.120;2023-11-22T13:19:06;0.43;;;0.10;;
13356;SDS011;6747;56.456;-3.120;2023-11-22T13:21:34;0.10;;;0.10;;
13356;SDS011;6747;56.456;-3.120;2023-11-22T13:24:02;0.10;;;0.10;;
13356;SDS011;6747;56.456;-3.120;2023-11-22T13:26:33;0.68;;;0.10;;
13356;SDS011;6747;56.456;-3.120;2023-11-22T13:29:00;0.25;;;0.20;;
13356;SDS011;6747;56.456;-3.120;2023-11-22T13:31:28;0.20;;;0.20;;
13356;SDS011;6747;56.456;-3.120;2023-11-22T13:33:55;0.10;;;0.10;;
13356;SDS011;6747;56.456;-3.120;2023-11-22T13:36:22;0.10;;;0.10;;
13356;SDS011;6747;56.456;-3.120;2023-11-22T13:38:50;0.25;;;0.20;;
13356;SDS011;6747;56.456;-3.120;2023-11-22T13:41:20;0.10;;;0.10;;
13356;SDS011;6747;56.456;-3.120;2023-11-22T13:43:50;0.10;;;0.10;;
13356;SDS011;6747;56.456;-3.120;2023-11-22T13:46:18;0.10;;;0.10;;
13356;SDS011;6747;56.456;-3.120;2023-11-22T13:48:45;0.17;;;0.10;;
13356;SDS011;6747;56.456;-3.120;2023-11-22T13:51:13;0.20;;;0.03;;
13356;SDS011;6747;56.456;-3.120;2023-11-22T13:53:40;0.65;;;0.20;;
13356;SDS011;6747;56.456;-3.120;2023-11-22T13:56:09;0.10;;;0.10;;
13356;SDS011;6747;56.456;-3.120;2023-11-22T13:58:37;0.20;;;0.20;;
13356;SDS011;6747;56.456;-3.120;2023-11-22T14:01:06;0.47;;;0.20;;
13356;SDS011;6747;56.456;-3.120;2023-11-22T14:03:38;0.20;;;0.20;;
13356;SDS011;6747;56.456;-3.120;2023-11-22T14:06:06;1.13;;;0.20;;
13356;SDS011;6747;56.456;-3.120;2023-11-22T14:08:34;0.55;;;0.20;;
13356;SDS011;6747;56.456;-3.120;2023-11-22T14:11:02;0.10;;;0.10;;
13356;SDS011;6747;56.456;-3.120;2023-11-22T14:13:30;0.15;;;0.15;;
13356;SDS011;6747;56.456;-3.120;2023-11-22T14:15:58;0.20;;;0.20;;
13356;SDS011;6747;56.456;-3.120;2023-11-22T14:18:27;0.50;;;0.22;;
13356;SDS011;6747;56.456;-3.120;2023-11-22T14:20:55;0.00;;;0.00;;
13356;SDS011;6747;56.456;-3.120;2023-11-22T14:23:23;0.98;;;0.30;;
13356;SDS011;6747;56.456;-3.120;2023-11-22T14:25:50;0.35;;;0.20;;
13356;SDS011;6747;56.456;-3.120;2023-11-22T14:28:18;0.00;;;0.00;;
13356;SDS011;6747;56.456;-3.120;2023-11-22T14:30:45;0.57;;;0.20;;
13356;SDS011;6747;56.456;-3.120;2023-11-22T14:33:15;0.55;;;0.20;;
13356;SDS011;6747;56.456;-3.120;2023-11-22T14:35:44;0.40;;;0.40;;
13356;SDS011;6747;56.456;-3.120;2023-11-22T14:38:11;0.40;;;0.40;;
13356;SDS011;6747;56.456;-3.120;2023-11-22T14:40:39;1.02;;;0.80;;
13356;SDS011;6747;56.456;-3.120;2023-11-22T14:43:07;0.60;;;0.60;;
13356;SDS011;6747;56.456;-3.120;2023-11-22T14:45:34;0.40;;;0.40;;
13356;SDS011;6747;56.456;-3.120;2023-11-22T14:48:02;0.43;;;0.30;;
13356;SDS011;6747;56.456;-3.120;2023-11-22T14:50:30;1.02;;;0.35;;
13356;SDS011;6747;56.456;-3.120;2023-11-22T14:52:59;1.17;;;0.30;;
13356;SDS011;6747;56.456;-3.120;2023-11-22T14:55:26;0.25;;;0.25;;